sensor_id;sensor_type;location;lat;lon;timestamp;pressure;altitude;pressure_sealevel;temperature;humidity
26859;BME280;14429;48.346;16.338;2023-04-30T00:01:50;99884.81;;;15.92;67.77
26859;BME280;14429;48.346;16.338;2023-04-30T00:04:15;99884.03;;;16.01;67.55
26859;BME280;14429;48.346;16.338;2023-04-30T00:06:41;99882.94;;;15.63;66.18
26859;BME280;14429;48.346;16.338;2023-04-30T00:09:06;99874.13;;;15.82;67.99
26859;BME280;14429;48.346;16.338;2023-04-30T00:11:32;99889.94;;;15.95;67.75
26859;BME280;14429;48.346;16.338;2023-04-30T00:13:57;99881.78;;;16.36;68.80
26859;BME280;14429;48.346;16.338;2023-04-30T00:16:22;99879.72;;;16.58;68.95
26859;BME280;14429;48.346;16.338;2023-04-30T00:18:50;99879.75;;;16.67;68.41
26859;BME280;14429;48.346;16.338;2023-04-30T00:21:15;99877.34;;;16.83;68.31
26859;BME280;14429;48.346;16.338;2023-04-30T00:23:41;99878.50;;;16.90;67.77
26859;BME280;14429;48.346;16.338;2023-04-30T00:26:06;99881.06;;;16.91;67.60
26859;BME280;14429;48.346;16.338;2023-04-30T00:28:32;99883.47;;;16.85;67.30
26859;BME280;14429;48.346;16.338;2023-04-30T00:30:57;99884.19;;;16.96;67.19
26859;BME280;14429;48.346;16.338;2023-04-30T00:33:23;99884.91;;;16.98;67.45
26859;BME280;14429;48.346;16.338;2023-04-30T00:35:50;99881.06;;;17.00;67.27
26859;BME280;14429;48.346;16.338;2023-04-30T00:38:15;99880.50;;;17.06;67.09
26859;BME280;14429;48.346;16.338;2023-04-30T00:40:41;99875.13;;;17.06;66.96
26859;BME280;14429;48.346;16.338;2023-04-30T00:43:07;99882.75;;;17.01;66.56
26859;BME280;14429;48.346;16.338;2023-04-30T00:45:33;99884.19;;;17.05;66.86
26859;BME280;14429;48.346;16.338;2023-04-30T00:47:58;99888.38;;;17.09;66.68
26859;BME280;14429;48.346;16.338;2023-04-30T00:50:24;99898.66;;;17.04;66.65
26859;BME280;14429;48.346;16.338;2023-04-30T00:52:51;99894.97;;;17.05;66.75
26859;BME280;14429;48.346;16.338;2023-04-30T00:55:17;99893.53;;;17.01;66.73
26859;BME280;14429;48.346;16.338;2023-04-30T00:57:43;99892.25;;;17.05;66.69
26859;BME280;14429;48.346;16.338;2023-04-30T01:00:09;99893.84;;;16.99;66.42
26859;BME280;14429;48.346;16.338;2023-04-30T01:02:35;99897.13;;;17.02;66.82
26859;BME280;14429;48.346;16.338;2023-04-30T01:05:01;99898.22;;;16.99;66.77
26859;BME280;14429;48.346;16.338;2023-04-30T01:07:26;99899.16;;;17.09;66.61
26859;BME280;14429;48.346;16.338;2023-04-30T01:09:53;99900.09;;;17.08;66.40
26859;BME280;14429;48.346;16.338;2023-04-30T01:12:22;99904.03;;;17.04;66.50
26859;BME280;14429;48.346;16.338;2023-04-30T01:14:56;99899.22;;;16.99;66.02
26859;BME280;14429;48.346;16.338;2023-04-30T01:17:31;99905.31;;;17.00;66.23
26859;BME280;14429;48.346;16.338;2023-04-30T01:19:58;99906.81;;;16.75;65.04
26859;BME280;14429;48.346;16.338;2023-04-30T01:22:34;99910.56;;;16.93;66.19
26859;BME280;14429;48.346;16.338;2023-04-30T01:25:17;99911.09;;;16.87;64.48
26859;BME280;14429;48.346;16.338;2023-04-30T01:28:01;99908.25;;;16.79;63.32
26859;BME280;14429;48.346;16.338;2023-04-30T01:30:27;99911.41;;;16.84;65.78
26859;BME280;14429;48.346;16.338;2023-04-30T01:32:54;99906.81;;;16.75;65.51
26859;BME280;14429;48.346;16.338;2023-04-30T01:35:20;99907.16;;;16.91;66.50
26859;BME280;14429;48.346;16.338;2023-04-30T01:37:59;99909.28;;;16.39;61.24
26859;BME280;14429;48.346;16.338;2023-04-30T01:40:35;99909.25;;;16.78;66.49
26859;BME280;14429;48.346;16.338;2023-04-30T01:43:11;99920.19;;;16.86;66.52
26859;BME280;14429;48.346;16.338;2023-04-30T01:45:48;99908.59;;;16.95;66.33
26859;BME280;14429;48.346;16.338;2023-04-30T01:48:21;99909.28;;;16.97;66.49
26859;BME280;14429;48.346;16.338;2023-04-30T01:50:57;99915.06;;;16.83;65.75
26859;BME280;14429;48.346;16.338;2023-04-30T01:53:32;99914.25;;;16.92;66.38
26859;BME280;14429;48.346;16.338;2023-04-30T01:56:02;99913.69;;;16.88;66.41
26859;BME280;14429;48.346;16.338;2023-04-30T01:58:31;99915.63;;;16.86;66.03
26859;BME280;14429;48.346;16.338;2023-04-30T02:00:56;99916.84;;;16.64;65.24
26859;BME280;14429;48.346;16.338;2023-04-30T02:03:22;99922.72;;;16.78;65.99
26859;BME280;14429;48.346;16.338;2023-04-30T02:05:49;99923.72;;;16.86;66.27
26859;BME280;14429;48.346;16.338;2023-04-30T02:08:14;99927.56;;;16.84;65.90
26859;BME280;14429;48.346;16.338;2023-04-30T02:10:40;99924.66;;;16.57;61.63
26859;BME280;14429;48.346;16.338;2023-04-30T02:13:05;99938.03;;;16.87;66.54
26859;BME280;14429;48.346;16.338;2023-04-30T02:15:32;99929.00;;;16.88;66.21
26859;BME280;14429;48.346;16.338;2023-04-30T02:17:58;99936.81;;;16.91;66.34
26859;BME280;14429;48.346;16.338;2023-04-30T02:20:23;99938.59;;;16.81;66.16
26859;BME280;14429;48.346;16.338;2023-04-30T02:22:50;99937.75;;;16.80;66.50
26859;BME280;14429;48.346;16.338;2023-04-30T02:25:15;99937.75;;;16.80;66.24
26859;BME280;14429;48.346;16.338;2023-04-30T02:27:41;99942.56;;;16.86;66.28
26859;BME280;14429;48.346;16.338;2023-04-30T02:30:07;99948.81;;;16.87;66.41
26859;BME280;14429;48.346;16.338;2023-04-30T02:32:34;99946.69;;;16.81;65.93
26859;BME280;14429;48.346;16.338;2023-04-30T02:34:59;99945.44;;;16.85;65.88
26859;BME280;14429;48.346;16.338;2023-04-30T02:37:25;99947.69;;;16.80;65.86
26859;BME280;14429;48.346;16.338;2023-04-30T02:39:51;99945.44;;;16.85;66.08
26859;BME280;14429;48.346;16.338;2023-04-30T02:42:17;99945.13;;;16.78;66.13
26859;BME280;14429;48.346;16.338;2023-04-30T02:44:42;99949.59;;;16.59;63.33
26859;BME280;14429;48.346;16.338;2023-04-30T02:47:08;99943.38;;;16.68;65.70
26859;BME280;14429;48.346;16.338;2023-04-30T02:49:34;99956.16;;;16.66;66.07
26859;BME280;14429;48.346;16.338;2023-04-30T02:52:00;99961.00;;;16.72;66.16
26859;BME280;14429;48.346;16.338;2023-04-30T02:54:25;99957.72;;;16.78;66.21
26859;BME280;14429;48.346;16.338;2023-04-30T02:56:52;99969.78;;;16.74;66.07
26859;BME280;14429;48.346;16.338;2023-04-30T02:59:17;99967.19;;;16.63;64.80
26859;BME280;14429;48.346;16.338;2023-04-30T03:01:43;99975.53;;;16.60;64.73
26859;BME280;14429;48.346;16.338;2023-04-30T03:04:08;99962.81;;;16.72;66.20
26859;BME280;14429;48.346;16.338;2023-04-30T03:06:35;99977.59;;;16.47;64.02
26859;BME280;14429;48.346;16.338;2023-04-30T03:09:00;99969.78;;;16.74;66.15
26859;BME280;14429;48.346;16.338;2023-04-30T03:11:26;99969.78;;;16.74;66.08
26859;BME280;14429;48.346;16.338;2023-04-30T03:13:51;99980.53;;;16.65;65.68
26859;BME280;14429;48.346;16.338;2023-04-30T03:16:17;99980.88;;;16.51;63.88
26859;BME280;14429;48.346;16.338;2023-04-30T03:18:45;99990.41;;;16.64;65.09
26859;BME280;14429;48.346;16.338;2023-04-30T03:21:10;99988.19;;;16.69;65.44
26859;BME280;14429;48.346;16.338;2023-04-30T03:23:37;99983.50;;;16.71;65.57
26859;BME280;14429;48.346;16.338;2023-04-30T03:26:02;99984.75;;;16.67;65.73
26859;BME280;14429;48.346;16.338;2023-04-30T03:28:28;99989.34;;;16.76;65.78
26859;BME280;14429;48.346;16.338;2023-04-30T03:30:53;99994.31;;;16.01;58.76
26859;BME280;14429;48.346;16.338;2023-04-30T03:33:19;99990.91;;;16.49;64.50
26859;BME280;14429;48.346;16.338;2023-04-30T03:35:45;99991.81;;;16.59;65.58
26859;BME280;14429;48.346;16.338;2023-04-30T03:38:10;100000.50;;;16.62;65.71
26859;BME280;14429;48.346;16.338;2023-04-30T03:40:37;100001.66;;;16.40;60.74
26859;BME280;14429;48.346;16.338;2023-04-30T03:43:02;100008.84;;;16.59;65.46
26859;BME280;14429;48.346;16.338;2023-04-30T03:45:28;100007.13;;;16.58;65.48
26859;BME280;14429;48.346;16.338;2023-04-30T03:47:53;100005.13;;;16.51;62.38
26859;BME280;14429;48.346;16.338;2023-04-30T03:50:19;100007.53;;;16.54;65.59
26859;BME280;14429;48.346;16.338;2023-04-30T03:52:45;100004.72;;;16.55;65.46
26859;BME280;14429;48.346;16.338;2023-04-30T03:55:11;100005.72;;;16.64;65.86
26859;BME280;14429;48.346;16.338;2023-04-30T03:57:38;100015.31;;;16.57;65.58
26859;BME280;14429;48.346;16.338;2023-04-30T04:00:05;100017.31;;;16.55;65.35
26859;BME280;14429;48.346;16.338;2023-04-30T04:02:31;100023.28;;;16.58;65.53
26859;BME280;14429;48.346;16.338;2023-04-30T04:04:56;100023.69;;;16.54;64.86
26859;BME280;14429;48.346;16.338;2023-04-30T04:07:22;100016.25;;;16.67;65.87
26859;BME280;14429;48.346;16.338;2023-04-30T04:09:47;100027.16;;;16.65;65.85
26859;BME280;14429;48.346;16.338;2023-04-30T04:12:13;100029.56;;;16.68;65.64
26859;BME280;14429;48.346;16.338;2023-04-30T04:14:39;100026.16;;;16.66;65.67
26859;BME280;14429;48.346;16.338;2023-04-30T04:17:05;100031.53;;;16.66;65.33
26859;BME280;14429;48.346;16.338;2023-04-30T04:19:30;100031.28;;;16.69;65.57
26859;BME280;14429;48.346;16.338;2023-04-30T04:21:56;100032.38;;;16.57;64.80
26859;BME280;14429;48.346;16.338;2023-04-30T04:24:23;100035.72;;;16.50;65.17
26859;BME280;14429;48.346;16.338;2023-04-30T04:26:48;100041.81;;;16.52;64.85
26859;BME280;14429;48.346;16.338;2023-04-30T04:29:14;100041.47;;;16.66;65.78
26859;BME280;14429;48.346;16.338;2023-04-30T04:31:42;100043.66;;;16.51;63.65
26859;BME280;14429;48.346;16.338;2023-04-30T04:34:07;100056.84;;;16.54;64.52
26859;BME280;14429;48.346;16.338;2023-04-30T04:36:33;100054.50;;;16.61;63.92
26859;BME280;14429;48.346;16.338;2023-04-30T04:38:58;100049.13;;;16.70;64.82
26859;BME280;14429;48.346;16.338;2023-04-30T04:41:24;100059.66;;;16.73;64.68
26859;BME280;14429;48.346;16.338;2023-04-30T04:43:49;100061.25;;;16.85;64.80
26859;BME280;14429;48.346;16.338;2023-04-30T04:46:15;100053.19;;;16.85;64.39
26859;BME280;14429;48.346;16.338;2023-04-30T04:48:42;100051.66;;;16.92;64.03
26859;BME280;14429;48.346;16.338;2023-04-30T04:51:08;100054.19;;;16.93;64.36
26859;BME280;14429;48.346;16.338;2023-04-30T04:53:33;100058.47;;;16.96;64.11
26859;BME280;14429;48.346;16.338;2023-04-30T04:55:59;100059.47;;;16.95;64.45
26859;BME280;14429;48.346;16.338;2023-04-30T04:58:24;100059.56;;;17.13;63.43
26859;BME280;14429;48.346;16.338;2023-04-30T05:00:50;100055.88;;;17.14;62.99
26859;BME280;14429;48.346;16.338;2023-04-30T05:03:15;100070.06;;;17.16;62.59
26859;BME280;14429;48.346;16.338;2023-04-30T05:05:42;100073.66;;;16.97;64.14
26859;BME280;14429;48.346;16.338;2023-04-30T05:08:07;100070.63;;;16.90;64.54
26859;BME280;14429;48.346;16.338;2023-04-30T05:10:33;100071.50;;;16.91;64.40
26859;BME280;14429;48.346;16.338;2023-04-30T05:12:58;100072.22;;;16.93;64.28
26859;BME280;14429;48.346;16.338;2023-04-30T05:15:24;100072.47;;;16.90;64.23
26859;BME280;14429;48.346;16.338;2023-04-30T05:17:49;100069.66;;;16.91;63.72
26859;BME280;14429;48.346;16.338;2023-04-30T05:20:14;100068.81;;;16.91;63.42
26859;BME280;14429;48.346;16.338;2023-04-30T05:22:41;100074.97;;;16.73;61.78
26859;BME280;14429;48.346;16.338;2023-04-30T05:25:07;100088.53;;;16.71;61.61
26859;BME280;14429;48.346;16.338;2023-04-30T05:27:33;100090.28;;;16.72;63.34
26859;BME280;14429;48.346;16.338;2023-04-30T05:29:59;100089.69;;;16.69;61.32
26859;BME280;14429;48.346;16.338;2023-04-30T05:32:25;100088.47;;;16.82;64.12
26859;BME280;14429;48.346;16.338;2023-04-30T05:34:51;100082.38;;;16.80;63.10
26859;BME280;14429;48.346;16.338;2023-04-30T05:37:16;100090.75;;;16.86;63.91
26859;BME280;14429;48.346;16.338;2023-04-30T05:39:43;100094.03;;;16.90;63.77
26859;BME280;14429;48.346;16.338;2023-04-30T05:42:09;100102.38;;;16.87;63.76
26859;BME280;14429;48.346;16.338;2023-04-30T05:44:34;100081.81;;;16.86;63.86
26859;BME280;14429;48.346;16.338;2023-04-30T05:46:59;100095.38;;;16.75;63.42
26859;BME280;14429;48.346;16.338;2023-04-30T05:49:26;100097.88;;;16.67;60.81
26859;BME280;14429;48.346;16.338;2023-04-30T05:51:51;100102.47;;;17.05;62.39
26859;BME280;14429;48.346;16.338;2023-04-30T05:54:16;100110.69;;;17.24;62.28
26859;BME280;14429;48.346;16.338;2023-04-30T05:56:43;100122.91;;;17.37;53.27
26859;BME280;14429;48.346;16.338;2023-04-30T05:59:09;100126.41;;;17.67;53.98
26859;BME280;14429;48.346;16.338;2023-04-30T06:01:34;100129.06;;;17.49;61.03
26859;BME280;14429;48.346;16.338;2023-04-30T06:03:59;100116.63;;;17.76;55.76
26859;BME280;14429;48.346;16.338;2023-04-30T06:06:25;100127.88;;;17.81;57.27
26859;BME280;14429;48.346;16.338;2023-04-30T06:08:51;100128.94;;;17.59;53.05
26859;BME280;14429;48.346;16.338;2023-04-30T06:11:16;100122.72;;;17.68;54.43
26859;BME280;14429;48.346;16.338;2023-04-30T06:13:45;100129.25;;;17.75;55.24
26859;BME280;14429;48.346;16.338;2023-04-30T06:16:11;100124.59;;;17.77;56.68
26859;BME280;14429;48.346;16.338;2023-04-30T06:18:36;100123.88;;;17.75;57.84
26859;BME280;14429;48.346;16.338;2023-04-30T06:21:02;100124.13;;;17.72;56.40
26859;BME280;14429;48.346;16.338;2023-04-30T06:23:27;100127.03;;;17.80;52.97
26859;BME280;14429;48.346;16.338;2023-04-30T06:25:53;100128.25;;;17.67;53.07
26859;BME280;14429;48.346;16.338;2023-04-30T06:28:18;100127.84;;;17.71;55.75
26859;BME280;14429;48.346;16.338;2023-04-30T06:30:46;100129.84;;;17.69;55.47
26859;BME280;14429;48.346;16.338;2023-04-30T06:33:11;100121.84;;;17.58;53.17
26859;BME280;14429;48.346;16.338;2023-04-30T06:35:37;100126.84;;;17.63;54.55
26859;BME280;14429;48.346;16.338;2023-04-30T06:38:02;100133.81;;;17.65;58.88
26859;BME280;14429;48.346;16.338;2023-04-30T06:40:28;100131.75;;;17.49;54.82
26859;BME280;14429;48.346;16.338;2023-04-30T06:42:53;100126.47;;;17.38;52.60
26859;BME280;14429;48.346;16.338;2023-04-30T06:45:19;100143.19;;;17.02;52.25
26859;BME280;14429;48.346;16.338;2023-04-30T06:47:45;100123.44;;;17.31;57.94
26859;BME280;14429;48.346;16.338;2023-04-30T06:50:11;100134.81;;;17.35;58.35
26859;BME280;14429;48.346;16.338;2023-04-30T06:52:39;100130.63;;;17.51;59.24
26859;BME280;14429;48.346;16.338;2023-04-30T06:55:05;100139.25;;;17.45;57.60
26859;BME280;14429;48.346;16.338;2023-04-30T06:57:31;100133.75;;;17.47;61.20
26859;BME280;14429;48.346;16.338;2023-04-30T06:59:56;100133.91;;;17.16;54.90
26859;BME280;14429;48.346;16.338;2023-04-30T07:02:21;100137.66;;;17.24;59.04
26859;BME280;14429;48.346;16.338;2023-04-30T07:04:48;100130.19;;;17.07;55.63
26859;BME280;14429;48.346;16.338;2023-04-30T07:07:14;100133.31;;;17.12;56.10
26859;BME280;14429;48.346;16.338;2023-04-30T07:09:39;100140.25;;;16.85;51.53
26859;BME280;14429;48.346;16.338;2023-04-30T07:12:04;100139.69;;;17.11;60.49
26859;BME280;14429;48.346;16.338;2023-04-30T07:14:30;100143.34;;;16.81;53.86
26859;BME280;14429;48.346;16.338;2023-04-30T07:16:55;100142.97;;;16.65;50.53
26859;BME280;14429;48.346;16.338;2023-04-30T07:19:21;100141.19;;;16.55;50.75
26859;BME280;14429;48.346;16.338;2023-04-30T07:21:48;100140.94;;;16.27;51.00
26859;BME280;14429;48.346;16.338;2023-04-30T07:24:13;100148.47;;;16.44;53.73
26859;BME280;14429;48.346;16.338;2023-04-30T07:26:38;100145.84;;;16.33;49.52
26859;BME280;14429;48.346;16.338;2023-04-30T07:29:04;100152.91;;;16.03;49.31
26859;BME280;14429;48.346;16.338;2023-04-30T07:31:29;100152.00;;;16.24;51.10
26859;BME280;14429;48.346;16.338;2023-04-30T07:33:55;100152.06;;;16.02;49.76
26859;BME280;14429;48.346;16.338;2023-04-30T07:36:20;100154.84;;;16.43;57.32
26859;BME280;14429;48.346;16.338;2023-04-30T07:38:47;100158.38;;;16.12;50.13
26859;BME280;14429;48.346;16.338;2023-04-30T07:41:13;100158.03;;;16.37;58.08
26859;BME280;14429;48.346;16.338;2023-04-30T07:43:38;100164.25;;;16.06;50.25
26859;BME280;14429;48.346;16.338;2023-04-30T07:46:04;100161.03;;;16.23;53.61
26859;BME280;14429;48.346;16.338;2023-04-30T07:48:29;100167.50;;;15.79;49.82
26859;BME280;14429;48.346;16.338;2023-04-30T07:50:55;100171.97;;;15.58;50.13
26859;BME280;14429;48.346;16.338;2023-04-30T07:53:21;100169.28;;;15.58;51.48
26859;BME280;14429;48.346;16.338;2023-04-30T07:55:48;100168.06;;;15.40;50.06
26859;BME280;14429;48.346;16.338;2023-04-30T07:58:13;100168.34;;;15.27;50.37
26859;BME280;14429;48.346;16.338;2023-04-30T08:00:39;100181.88;;;15.14;50.13
26859;BME280;14429;48.346;16.338;2023-04-30T08:03:04;100170.91;;;15.17;53.41
26859;BME280;14429;48.346;16.338;2023-04-30T08:05:30;100172.72;;;15.49;52.80
26859;BME280;14429;48.346;16.338;2023-04-30T08:07:55;100171.50;;;15.32;50.63
26859;BME280;14429;48.346;16.338;2023-04-30T08:10:21;100169.66;;;15.54;53.27
26859;BME280;14429;48.346;16.338;2023-04-30T08:12:48;100166.63;;;15.37;50.18
26859;BME280;14429;48.346;16.338;2023-04-30T08:15:13;100165.91;;;15.45;56.51
26859;BME280;14429;48.346;16.338;2023-04-30T08:17:38;100182.25;;;15.21;50.49
26859;BME280;14429;48.346;16.338;2023-04-30T08:20:05;100175.28;;;15.29;52.37
26859;BME280;14429;48.346;16.338;2023-04-30T08:22:31;100174.44;;;15.39;53.46
26859;BME280;14429;48.346;16.338;2023-04-30T08:24:56;100172.97;;;15.46;52.87
26859;BME280;14429;48.346;16.338;2023-04-30T08:27:22;100175.03;;;15.43;51.47
26859;BME280;14429;48.346;16.338;2023-04-30T08:29:49;100180.78;;;15.49;51.04
26859;BME280;14429;48.346;16.338;2023-04-30T08:32:14;100167.84;;;15.43;50.23
26859;BME280;14429;48.346;16.338;2023-04-30T08:34:40;100179.44;;;15.33;52.46
26859;BME280;14429;48.346;16.338;2023-04-30T08:37:05;100174.19;;;15.32;50.83
26859;BME280;14429;48.346;16.338;2023-04-30T08:39:31;100171.38;;;15.44;51.06
26859;BME280;14429;48.346;16.338;2023-04-30T08:42:00;100178.50;;;15.23;49.99
26859;BME280;14429;48.346;16.338;2023-04-30T08:44:26;100178.59;;;15.43;50.51
26859;BME280;14429;48.346;16.338;2023-04-30T08:46:54;100186.19;;;15.38;52.34
26859;BME280;14429;48.346;16.338;2023-04-30T08:49:21;100182.47;;;15.61;53.33
26859;BME280;14429;48.346;16.338;2023-04-30T08:51:46;100177.09;;;15.72;51.56
26859;BME280;14429;48.346;16.338;2023-04-30T08:54:12;100183.38;;;15.92;54.09
26859;BME280;14429;48.346;16.338;2023-04-30T08:56:38;100191.16;;;16.06;56.18
26859;BME280;14429;48.346;16.338;2023-04-30T08:59:03;100192.03;;;16.07;50.44
26859;BME280;14429;48.346;16.338;2023-04-30T09:01:29;100178.44;;;16.08;53.36
26859;BME280;14429;48.346;16.338;2023-04-30T09:03:56;100190.75;;;15.80;49.50
26859;BME280;14429;48.346;16.338;2023-04-30T09:06:21;100193.00;;;15.64;49.44
26859;BME280;14429;48.346;16.338;2023-04-30T09:08:48;100192.03;;;16.07;51.86
26859;BME280;14429;48.346;16.338;2023-04-30T09:11:21;100186.25;;;16.22;49.89
26859;BME280;14429;48.346;16.338;2023-04-30T09:13:48;100185.44;;;16.00;48.52
26859;BME280;14429;48.346;16.338;2023-04-30T09:16:14;100188.28;;;16.29;51.13
26859;BME280;14429;48.346;16.338;2023-04-30T09:18:40;100180.63;;;16.25;51.01
26859;BME280;14429;48.346;16.338;2023-04-30T09:21:07;100179.56;;;16.37;49.90
26859;BME280;14429;48.346;16.338;2023-04-30T09:23:33;100183.22;;;16.46;49.05
26859;BME280;14429;48.346;16.338;2023-04-30T09:25:58;100186.41;;;16.41;48.87
26859;BME280;14429;48.346;16.338;2023-04-30T09:28:24;100176.19;;;16.35;49.01
26859;BME280;14429;48.346;16.338;2023-04-30T09:30:50;100190.03;;;16.50;50.45
26859;BME280;14429;48.346;16.338;2023-04-30T09:33:16;100183.16;;;16.57;49.73
26859;BME280;14429;48.346;16.338;2023-04-30T09:35:41;100179.16;;;16.72;51.26
26859;BME280;14429;48.346;16.338;2023-04-30T09:38:24;100171.19;;;16.91;49.12
26859;BME280;14429;48.346;16.338;2023-04-30T09:40:50;100176.84;;;16.88;48.23
26859;BME280;14429;48.346;16.338;2023-04-30T09:43:15;100175.47;;;16.73;47.63
26859;BME280;14429;48.346;16.338;2023-04-30T09:45:42;100180.31;;;16.79;47.76
26859;BME280;14429;48.346;16.338;2023-04-30T09:48:08;100175.78;;;16.99;49.38
26859;BME280;14429;48.346;16.338;2023-04-30T09:50:37;100174.47;;;17.14;48.12
26859;BME280;14429;48.346;16.338;2023-04-30T09:53:04;100173.91;;;17.20;47.74
26859;BME280;14429;48.346;16.338;2023-04-30T09:55:32;100168.31;;;17.32;47.88
26859;BME280;14429;48.346;16.338;2023-04-30T09:57:59;100163.41;;;17.47;48.48
26859;BME280;14429;48.346;16.338;2023-04-30T10:00:25;100159.56;;;17.49;48.24
26859;BME280;14429;48.346;16.338;2023-04-30T10:02:51;100156.78;;;17.60;48.46
26859;BME280;14429;48.346;16.338;2023-04-30T10:05:18;100162.06;;;17.61;54.92
26859;BME280;14429;48.346;16.338;2023-04-30T10:07:44;100157.63;;;17.60;50.16
26859;BME280;14429;48.346;16.338;2023-04-30T10:10:10;100158.56;;;17.50;48.46
26859;BME280;14429;48.346;16.338;2023-04-30T10:12:50;100146.44;;;17.26;49.37
26859;BME280;14429;48.346;16.338;2023-04-30T10:15:19;100146.19;;;17.38;50.54
26859;BME280;14429;48.346;16.338;2023-04-30T10:17:52;100147.66;;;17.52;49.57
26859;BME280;14429;48.346;16.338;2023-04-30T10:20:20;100144.25;;;17.50;50.25
26859;BME280;14429;48.346;16.338;2023-04-30T10:22:47;100133.19;;;17.53;48.96
26859;BME280;14429;48.346;16.338;2023-04-30T10:25:13;100140.00;;;17.56;48.42
26859;BME280;14429;48.346;16.338;2023-04-30T10:27:40;100129.50;;;17.53;51.20
26859;BME280;14429;48.346;16.338;2023-04-30T10:30:09;100128.59;;;17.34;48.20
26859;BME280;14429;48.346;16.338;2023-04-30T10:32:40;100118.38;;;17.38;55.72
26859;BME280;14429;48.346;16.338;2023-04-30T10:35:10;100129.50;;;17.53;57.64
26859;BME280;14429;48.346;16.338;2023-04-30T10:37:45;100123.22;;;17.44;48.65
26859;BME280;14429;48.346;16.338;2023-04-30T10:40:12;100113.44;;;17.43;47.14
26859;BME280;14429;48.346;16.338;2023-04-30T10:42:46;100115.31;;;17.52;48.34
26859;BME280;14429;48.346;16.338;2023-04-30T10:45:12;100103.09;;;17.48;47.40
26859;BME280;14429;48.346;16.338;2023-04-30T10:47:41;100103.09;;;17.57;54.06
26859;BME280;14429;48.346;16.338;2023-04-30T10:50:08;100104.56;;;17.70;51.61
26859;BME280;14429;48.346;16.338;2023-04-30T10:52:33;100098.44;;;17.59;57.96
26859;BME280;14429;48.346;16.338;2023-04-30T10:55:03;100104.88;;;17.28;60.53
26859;BME280;14429;48.346;16.338;2023-04-30T10:57:29;100112.41;;;17.34;54.95
26859;BME280;14429;48.346;16.338;2023-04-30T11:00:18;100107.00;;;17.34;60.14
26859;BME280;14429;48.346;16.338;2023-04-30T11:02:45;100109.53;;;17.27;58.49
26859;BME280;14429;48.346;16.338;2023-04-30T11:05:12;100104.47;;;17.33;58.30
26859;BME280;14429;48.346;16.338;2023-04-30T11:07:46;100108.84;;;17.34;58.23
26859;BME280;14429;48.346;16.338;2023-04-30T11:10:12;100111.81;;;17.31;60.15
26859;BME280;14429;48.346;16.338;2023-04-30T11:12:39;100105.00;;;17.27;55.49
26859;BME280;14429;48.346;16.338;2023-04-30T11:15:11;100104.47;;;17.33;59.56
26859;BME280;14429;48.346;16.338;2023-04-30T11:17:38;100101.03;;;17.31;58.23
26859;BME280;14429;48.346;16.338;2023-04-30T11:20:05;100100.19;;;17.30;59.46
26859;BME280;14429;48.346;16.338;2023-04-30T11:22:31;100103.84;;;17.20;60.69
26859;BME280;14429;48.346;16.338;2023-04-30T11:25:04;100099.03;;;17.24;55.98
26859;BME280;14429;48.346;16.338;2023-04-30T11:27:31;100103.47;;;17.34;59.85
26859;BME280;14429;48.346;16.338;2023-04-30T11:29:57;100102.34;;;17.36;58.14
26859;BME280;14429;48.346;16.338;2023-04-30T11:32:24;100095.66;;;17.31;55.88
26859;BME280;14429;48.346;16.338;2023-04-30T11:34:51;100090.56;;;17.28;51.56
26859;BME280;14429;48.346;16.338;2023-04-30T11:37:18;100090.84;;;17.34;52.00
26859;BME280;14429;48.346;16.338;2023-04-30T11:39:45;100084.00;;;17.30;50.82
26859;BME280;14429;48.346;16.338;2023-04-30T11:42:15;100096.66;;;17.30;52.24
26859;BME280;14429;48.346;16.338;2023-04-30T11:44:40;100090.03;;;17.43;57.65
26859;BME280;14429;48.346;16.338;2023-04-30T11:47:06;100091.41;;;17.38;51.33
26859;BME280;14429;48.346;16.338;2023-04-30T11:49:31;100091.41;;;17.38;52.60
26859;BME280;14429;48.346;16.338;2023-04-30T11:51:58;100085.47;;;17.44;48.57
26859;BME280;14429;48.346;16.338;2023-04-30T11:54:23;100089.88;;;17.45;47.55
26859;BME280;14429;48.346;16.338;2023-04-30T11:56:49;100082.66;;;17.64;48.33
26859;BME280;14429;48.346;16.338;2023-04-30T11:59:15;100082.25;;;17.68;49.27
26859;BME280;14429;48.346;16.338;2023-04-30T12:01:41;100087.78;;;17.76;53.98
26859;BME280;14429;48.346;16.338;2023-04-30T12:04:07;100085.38;;;17.82;55.55
26859;BME280;14429;48.346;16.338;2023-04-30T12:06:33;100087.66;;;17.78;56.31
26859;BME280;14429;48.346;16.338;2023-04-30T12:09:02;100074.78;;;18.00;52.05
26859;BME280;14429;48.346;16.338;2023-04-30T12:11:28;100072.50;;;18.05;45.64
26859;BME280;14429;48.346;16.338;2023-04-30T12:13:56;100074.53;;;18.03;46.80
26859;BME280;14429;48.346;16.338;2023-04-30T12:16:23;100077.00;;;17.95;48.23
26859;BME280;14429;48.346;16.338;2023-04-30T12:18:48;100079.28;;;17.90;44.87
26859;BME280;14429;48.346;16.338;2023-04-30T12:21:14;100073.91;;;17.81;45.31
26859;BME280;14429;48.346;16.338;2023-04-30T12:23:40;100076.16;;;17.66;45.58
26859;BME280;14429;48.346;16.338;2023-04-30T12:26:07;100077.84;;;17.67;46.03
26859;BME280;14429;48.346;16.338;2023-04-30T12:28:33;100066.78;;;17.70;45.97
26859;BME280;14429;48.346;16.338;2023-04-30T12:30:58;100075.03;;;17.78;49.13
26859;BME280;14429;48.346;16.338;2023-04-30T12:33:29;100081.16;;;17.80;50.51
26859;BME280;14429;48.346;16.338;2023-04-30T12:35:56;100071.19;;;17.90;46.88
26859;BME280;14429;48.346;16.338;2023-04-30T12:38:21;100081.03;;;18.09;47.21
26859;BME280;14429;48.346;16.338;2023-04-30T12:40:47;100072.09;;;18.00;45.56